This is the latest recevied weather packets stored in our database for station/object SP3WRO-13. If no packets are shown the sender has not sent any weather packets the latest 1 day(s).
| Time | Temp. | Humidity | Pressure | Rain* | Wind** | Luminosity | Snow |
|---|---|---|---|---|---|---|---|
| 1777985993 | 13.33° C | 91% | 1005.5 hPa | - | 0.45 m/s, 84° | 106 W/m² | - |
| 1777985093 | 13.33° C | 92% | 1005.7 hPa | - | 0.89 m/s, 276° | 72 W/m² | - |
| 1777984193 | 13.33° C | 91% | 1005.7 hPa | - | 0.89 m/s, 312° | 78 W/m² | - |
| 1777983293 | 13.89° C | 92% | 1005.8 hPa | - | 0.89 m/s, 24° | 180 W/m² | - |
| 1777982393 | 13.33° C | 91% | 1005.9 hPa | - | 0.89 m/s, 343° | 118 W/m² | - |
| 1777981493 | 13.89° C | 90% | 1005.7 hPa | - | 0.89 m/s, 312° | 117 W/m² | - |
| 1777980593 | 13.89° C | 87% | 1005.8 hPa | - | 0.89 m/s, 344° | 117 W/m² | - |
| 1777979693 | 15° C | 85% | 1005.8 hPa | - | 0.89 m/s, 300° | 126 W/m² | - |
| 1777978793 | 15.56° C | 81% | 1005.9 hPa | - | 1.34 m/s, 294° | 175 W/m² | - |
| 1777977893 | 16.11° C | 75% | 1006 hPa | - | 0.89 m/s, 66° | 190 W/m² | - |
| 1777976993 | 16.67° C | 74% | 1006.1 hPa | - | 0.89 m/s, 49° | 247 W/m² | - |
| 1777976092 | 16.11° C | 76% | 1006.2 hPa | - | 0.45 m/s, 350° | 248 W/m² | - |
| 1777975192 | 16.11° C | 76% | 1006.3 hPa | - | 0.45 m/s, 305° | 134 W/m² | - |
| 1777974292 | 16.11° C | 77% | 1006.3 hPa | - | 0.45 m/s, 10° | 217 W/m² | - |
| 1777973392 | 16.11° C | 77% | 1006.2 hPa | - | 0.45 m/s, 330° | 239 W/m² | - |
| 1777972492 | 15.56° C | 79% | 1006.3 hPa | - | 0.45 m/s, 50° | 256 W/m² | - |
| 1777971591 | 15.56° C | 81% | 1006.2 hPa | - | 0.45 m/s, 12° | 289 W/m² | - |
| 1777970691 | 15° C | 82% | 1006.2 hPa | - | 0 m/s | 253 W/m² | - |
| 1777969791 | 14.44° C | 82% | 1006.2 hPa | - | 0.45 m/s, 22° | 157 W/m² | - |
| 1777968891 | 13.89° C | 85% | 1005.8 hPa | - | 0.45 m/s, 30° | 134 W/m² | - |
| 1777967991 | 13.89° C | 87% | 1005.6 hPa | - | 0.89 m/s, 60° | 101 W/m² | - |
| 1777967091 | 13.33° C | 87% | 1005.7 hPa | - | 0.89 m/s, 100° | 130 W/m² | - |
| 1777966191 | 13.33° C | 89% | 1005.8 hPa | - | 0.45 m/s, 36° | 120 W/m² | - |
| 1777965291 | 13.33° C | 87% | 1006 hPa | - | 0.89 m/s, 12° | 89 W/m² | - |
| 1777964391 | 13.89° C | 86% | 1006.4 hPa | - | 0.45 m/s, 72° | 66 W/m² | - |
* Rain since midnight (hover to see other rain measurements)
** Current wind speed in m/s (hover to see current wind gust speed)